createdAt,value
2022-10-05T00:01:47.165Z,3.97
2022-10-05T00:04:17.286Z,4.03
2022-10-05T00:06:57.281Z,4.15
2022-10-05T00:09:23.965Z,3.78
2022-10-05T00:11:51.098Z,4.25
2022-10-05T00:14:27.686Z,3.70
2022-10-05T00:16:55.631Z,4.10
2022-10-05T00:19:30.648Z,4.05
2022-10-05T00:22:10.367Z,3.78
2022-10-05T00:24:36.916Z,3.80
2022-10-05T00:27:14.902Z,4.00
2022-10-05T00:29:41.453Z,3.83
2022-10-05T00:32:10.431Z,4.82
2022-10-05T00:34:37.598Z,4.50
2022-10-05T00:37:05.333Z,4.22
2022-10-05T00:39:33.113Z,4.17
2022-10-05T00:42:18.450Z,3.75
2022-10-05T00:44:56.967Z,3.92
2022-10-05T00:47:23.340Z,3.55
2022-10-05T00:50:06.201Z,3.63
2022-10-05T00:52:39.792Z,3.80
2022-10-05T00:55:06.322Z,3.70
2022-10-05T00:57:58.259Z,3.88
2022-10-05T01:00:26.844Z,4.07
2022-10-05T01:03:08.882Z,3.50
2022-10-05T01:05:54.881Z,3.90
2022-10-05T01:08:47.762Z,3.80
2022-10-05T01:11:51.178Z,3.60
2022-10-05T01:14:43.628Z,3.67
2022-10-05T01:17:18.406Z,4.00
2022-10-05T01:20:01.072Z,4.10
2022-10-05T01:22:46.446Z,3.80
2022-10-05T01:25:24.828Z,3.35
2022-10-05T01:27:58.541Z,3.60
2022-10-05T01:30:25.511Z,3.72
2022-10-05T01:33:17.596Z,3.67
2022-10-05T01:36:19.634Z,3.50
2022-10-05T01:39:02.796Z,3.97
2022-10-05T01:41:37.538Z,3.85
2022-10-05T01:44:16.060Z,3.42
2022-10-05T01:47:06.994Z,3.90
2022-10-05T01:49:55.359Z,3.30
2022-10-05T01:52:54.010Z,3.40
2022-10-05T01:55:43.830Z,3.70
2022-10-05T01:58:29.049Z,3.55
2022-10-05T02:01:07.949Z,3.40
2022-10-05T02:04:42.717Z,3.60
2022-10-05T02:07:15.375Z,3.50
2022-10-05T02:09:55.331Z,3.85
2022-10-05T02:12:25.338Z,3.30
2022-10-05T02:15:00.957Z,3.47
2022-10-05T02:17:35.180Z,3.40
2022-10-05T02:20:07.334Z,3.85
2022-10-05T02:22:38.277Z,3.90
2022-10-05T02:25:13.293Z,3.70
2022-10-05T02:27:47.050Z,3.80
2022-10-05T02:30:16.848Z,3.97
2022-10-05T02:32:54.072Z,3.95
2022-10-05T02:35:21.829Z,4.15
2022-10-05T02:37:57.069Z,3.88
2022-10-05T02:40:31.418Z,3.77
2022-10-05T02:43:16.328Z,3.78
2022-10-05T02:46:13.489Z,3.80
2022-10-05T02:49:14.088Z,4.20
2022-10-05T02:51:49.506Z,4.18
2022-10-05T02:54:40.670Z,4.30
2022-10-05T02:57:33.378Z,4.00
2022-10-05T03:00:22.464Z,4.30
2022-10-05T03:03:04.158Z,4.35
2022-10-05T03:05:39.915Z,4.38
2022-10-05T03:08:26.111Z,4.27
2022-10-05T03:11:40.980Z,4.30
2022-10-05T03:14:24.126Z,4.03
2022-10-05T03:16:59.971Z,4.30
2022-10-05T03:20:04.234Z,3.50
2022-10-05T03:22:47.397Z,4.20
2022-10-05T03:25:43.011Z,3.90
2022-10-05T03:28:35.104Z,4.13
2022-10-05T03:31:35.455Z,4.03
2022-10-05T03:34:11.338Z,3.70
2022-10-05T03:36:59.484Z,3.60
2022-10-05T03:39:57.592Z,3.75
2022-10-05T03:43:12.284Z,3.50
2022-10-05T03:45:48.647Z,3.50
2022-10-05T03:48:22.675Z,3.63
2022-10-05T03:51:13.282Z,3.43
2022-10-05T03:53:48.522Z,3.70
2022-10-05T03:56:33.314Z,3.88
2022-10-05T03:59:14.687Z,3.65
2022-10-05T04:02:05.887Z,3.67
2022-10-05T04:04:40.970Z,3.67
2022-10-05T04:07:17.882Z,3.80
2022-10-05T04:09:49.788Z,3.78
2022-10-05T04:12:25.591Z,3.78
2022-10-05T04:15:00.478Z,3.72
2022-10-05T04:17:34.160Z,3.60
2022-10-05T04:20:06.121Z,3.53
2022-10-05T04:22:38.973Z,3.60
2022-10-05T04:25:22.817Z,3.40
2022-10-05T04:27:58.276Z,3.33
2022-10-05T04:30:25.215Z,3.40
2022-10-05T04:32:59.616Z,3.38
2022-10-05T04:35:52.547Z,3.60
2022-10-05T04:38:43.479Z,3.90
2022-10-05T04:41:25.369Z,4.10
2022-10-05T04:44:22.923Z,3.80
2022-10-05T04:47:10.495Z,4.38
2022-10-05T04:49:55.342Z,3.70
2022-10-05T04:52:55.319Z,4.32
2022-10-05T04:55:36.372Z,4.22
2022-10-05T04:58:16.594Z,4.10
2022-10-05T05:01:18.437Z,3.95
2022-10-05T05:04:27.867Z,4.70
2022-10-05T05:07:18.621Z,4.22
2022-10-05T05:09:55.256Z,4.03
2022-10-05T05:12:43.126Z,4.20
2022-10-05T05:15:39.938Z,4.40
2022-10-05T05:18:26.042Z,4.10
2022-10-05T05:21:08.435Z,4.18
2022-10-05T05:23:58.618Z,4.45
2022-10-05T05:26:36.754Z,4.50
2022-10-05T05:29:21.626Z,5.07
2022-10-05T05:32:00.932Z,4.85
2022-10-05T05:34:56.318Z,4.47
2022-10-05T05:37:43.730Z,4.18
2022-10-05T05:40:17.774Z,4.30
2022-10-05T05:42:52.999Z,4.50
2022-10-05T05:45:44.076Z,5.28
2022-10-05T05:48:28.602Z,5.47
2022-10-05T05:51:09.190Z,5.85
2022-10-05T05:53:48.125Z,5.93
2022-10-05T05:56:19.081Z,5.68
2022-10-05T05:59:04.955Z,5.43
2022-10-05T06:01:41.940Z,5.70
2022-10-05T06:04:31.203Z,5.80
2022-10-05T06:07:01.027Z,5.93
2022-10-05T06:09:44.679Z,5.40
2022-10-05T06:12:16.714Z,5.30
2022-10-05T06:14:49.609Z,5.10
2022-10-05T06:17:26.856Z,4.97
2022-10-05T06:20:01.212Z,5.50
2022-10-05T06:22:39.565Z,4.75
2022-10-05T06:25:12.074Z,5.18
2022-10-05T06:28:16.085Z,5.88
2022-10-05T06:31:06.198Z,6.05
2022-10-05T06:33:51.068Z,5.50
2022-10-05T06:36:20.395Z,6.00
2022-10-05T06:39:02.474Z,6.18
2022-10-05T06:41:37.896Z,5.50
2022-10-05T06:44:25.703Z,5.22
2022-10-05T06:47:16.039Z,5.20
2022-10-05T06:50:15.296Z,4.68
2022-10-05T06:52:58.755Z,4.40
2022-10-05T06:56:16.282Z,4.57
2022-10-05T06:58:48.234Z,4.20
2022-10-05T07:01:30.453Z,4.00
2022-10-05T07:04:21.337Z,4.15
2022-10-05T07:06:57.684Z,4.80
2022-10-05T07:09:45.626Z,4.57
2022-10-05T07:12:33.894Z,4.45
2022-10-05T07:15:39.428Z,4.00
2022-10-05T07:18:22.651Z,3.40
2022-10-05T07:21:07.362Z,2.83
2022-10-05T07:23:59.107Z,2.63
2022-10-05T07:26:42.536Z,2.20
2022-10-05T07:29:39.832Z,2.47
2022-10-05T07:32:21.858Z,2.28
2022-10-05T07:35:36.501Z,2.13
2022-10-05T07:38:12.766Z,1.77
2022-10-05T07:40:44.926Z,2.20
2022-10-05T07:44:00.568Z,2.20
2022-10-05T07:47:08.688Z,2.22
2022-10-05T07:50:02.380Z,2.20
2022-10-05T07:52:41.008Z,1.58
2022-10-05T07:55:25.914Z,1.90
2022-10-05T07:58:20.031Z,1.70
2022-10-05T08:01:00.368Z,2.42
2022-10-05T08:03:40.314Z,2.10
2022-10-05T08:06:12.813Z,2.15
2022-10-05T08:08:54.481Z,2.35
2022-10-05T08:11:38.139Z,2.50
2022-10-05T08:14:17.162Z,2.03
2022-10-05T08:16:48.412Z,2.30
2022-10-05T08:19:38.198Z,2.10
2022-10-05T08:22:09.779Z,2.40
2022-10-05T08:24:59.436Z,3.80
2022-10-05T08:27:57.274Z,2.80
2022-10-05T08:30:24.221Z,2.40
2022-10-05T08:33:07.434Z,2.25
2022-10-05T08:35:46.932Z,2.33
2022-10-05T08:38:19.788Z,2.00
2022-10-05T08:41:38.435Z,2.08
2022-10-05T08:44:27.872Z,1.77
2022-10-05T08:47:12.824Z,1.90
2022-10-05T08:50:07.218Z,2.00
2022-10-05T08:53:12.153Z,1.83
2022-10-05T08:56:02.280Z,1.95
2022-10-05T08:58:53.557Z,2.10
2022-10-05T09:01:57.632Z,1.80
2022-10-05T09:04:58.094Z,1.95
2022-10-05T09:07:50.848Z,1.83
2022-10-05T09:10:54.577Z,1.88
2022-10-05T09:13:44.513Z,2.00
2022-10-05T09:16:17.518Z,2.20
2022-10-05T09:19:02.169Z,1.73
2022-10-05T09:21:57.269Z,1.90
2022-10-05T09:24:48.514Z,1.80
2022-10-05T09:27:17.625Z,1.95
2022-10-05T09:30:11.634Z,1.77
2022-10-05T09:32:57.686Z,2.17
2022-10-05T09:36:02.003Z,1.90
2022-10-05T09:38:54.567Z,2.10
2022-10-05T09:41:38.147Z,2.13
2022-10-05T09:44:40.444Z,1.80
2022-10-05T09:47:09.870Z,1.88
2022-10-05T09:50:00.353Z,2.17
2022-10-05T09:52:47.257Z,1.80
2022-10-05T09:55:43.109Z,2.15
2022-10-05T09:58:13.255Z,2.03
2022-10-05T10:01:09.100Z,2.10
2022-10-05T10:04:24.601Z,2.20
2022-10-05T10:07:32.382Z,2.10
2022-10-05T10:10:07.917Z,2.60
2022-10-05T10:13:12.666Z,2.30
2022-10-05T10:16:07.187Z,2.20
2022-10-05T10:18:50.569Z,2.03
2022-10-05T10:21:45.538Z,2.25
2022-10-05T10:24:24.161Z,2.30
2022-10-05T10:27:16.551Z,2.40
2022-10-05T10:29:43.012Z,2.00
2022-10-05T10:32:25.158Z,2.30
2022-10-05T10:34:57.526Z,2.20
2022-10-05T10:38:04.796Z,2.10
2022-10-05T10:40:47.530Z,2.60
2022-10-05T10:43:35.120Z,2.40
2022-10-05T10:46:44.680Z,2.10
2022-10-05T10:49:45.763Z,1.92
2022-10-05T10:52:37.283Z,2.00
2022-10-05T10:55:24.941Z,2.05
2022-10-05T10:58:03.580Z,2.35
2022-10-05T11:00:49.146Z,2.20
2022-10-05T11:04:00.614Z,2.10
2022-10-05T11:06:45.189Z,2.38
2022-10-05T11:09:30.428Z,2.20
2022-10-05T11:12:11.242Z,2.20
2022-10-05T11:15:08.590Z,2.40
2022-10-05T11:17:37.970Z,2.38
2022-10-05T11:20:29.356Z,2.45
2022-10-05T11:23:22.728Z,2.50
2022-10-05T11:26:18.631Z,2.58
2022-10-05T11:29:09.975Z,2.57
2022-10-05T11:31:37.827Z,2.50
2022-10-05T11:34:38.474Z,2.60
2022-10-05T11:37:36.265Z,2.90
2022-10-05T11:40:24.837Z,2.75
2022-10-05T11:43:00.164Z,2.73
2022-10-05T11:45:36.246Z,2.58
2022-10-05T11:48:24.586Z,2.30
2022-10-05T11:51:17.289Z,2.47
2022-10-05T11:54:19.225Z,2.20
2022-10-05T11:56:54.850Z,2.40
2022-10-05T11:59:34.833Z,2.40
2022-10-05T12:02:17.203Z,2.40
2022-10-05T12:05:21.896Z,2.70
2022-10-05T12:08:11.174Z,2.70
2022-10-05T12:11:02.621Z,2.10
2022-10-05T12:13:29.686Z,2.30
2022-10-05T12:16:03.786Z,2.78
2022-10-05T12:18:32.561Z,2.40
2022-10-05T12:21:05.275Z,2.80
2022-10-05T12:23:51.814Z,2.40
2022-10-05T12:26:30.582Z,2.42
2022-10-05T12:29:06.791Z,2.47
2022-10-05T12:31:57.648Z,2.47
2022-10-05T12:34:42.221Z,2.80
2022-10-05T12:37:31.924Z,2.70
2022-10-05T12:40:06.207Z,2.75
2022-10-05T12:42:51.174Z,2.70
2022-10-05T12:45:43.402Z,2.70
2022-10-05T12:48:34.729Z,2.67
2022-10-05T12:51:13.311Z,2.60
2022-10-05T12:53:55.467Z,3.00
2022-10-05T12:56:42.594Z,2.38
2022-10-05T12:59:31.781Z,2.47
2022-10-05T13:02:18.203Z,3.15
2022-10-05T13:05:10.984Z,2.90
2022-10-05T13:07:55.817Z,2.53
2022-10-05T13:10:58.868Z,2.90
2022-10-05T13:13:41.500Z,2.72
2022-10-05T13:16:38.390Z,2.70
2022-10-05T13:19:22.884Z,2.30
2022-10-05T13:22:16.693Z,2.78
2022-10-05T13:24:59.227Z,2.90
2022-10-05T13:27:36.847Z,2.70
2022-10-05T13:30:18.629Z,2.30
2022-10-05T13:32:54.327Z,2.70
2022-10-05T13:35:40.174Z,2.50
2022-10-05T13:38:31.863Z,2.40
2022-10-05T13:41:28.037Z,2.50
2022-10-05T13:44:28.574Z,2.60
2022-10-05T13:47:04.380Z,2.70
2022-10-05T13:49:37.043Z,2.42
2022-10-05T13:52:19.851Z,2.70
2022-10-05T13:54:58.066Z,2.70
2022-10-05T13:57:33.397Z,2.33
2022-10-05T14:00:15.680Z,2.20
2022-10-05T14:02:47.141Z,2.47
2022-10-05T14:05:30.149Z,2.40
2022-10-05T14:08:02.650Z,2.58
2022-10-05T14:10:41.842Z,2.22
2022-10-05T14:13:42.383Z,2.30
2022-10-05T14:16:25.426Z,2.10
2022-10-05T14:19:06.467Z,2.28
2022-10-05T14:21:47.190Z,2.00
2022-10-05T14:24:50.478Z,2.20
2022-10-05T14:27:33.183Z,1.83
2022-10-05T14:30:18.095Z,5.30
2022-10-05T14:33:08.265Z,11.70
2022-10-05T14:35:49.183Z,4.43
2022-10-05T14:38:25.616Z,2.97
2022-10-05T14:41:10.635Z,2.50
2022-10-05T14:43:37.927Z,2.60
2022-10-05T14:46:25.326Z,2.80
2022-10-05T14:49:17.103Z,2.00
2022-10-05T14:51:43.763Z,2.10
2022-10-05T14:54:52.293Z,2.87
2022-10-05T14:57:43.520Z,2.88
2022-10-05T15:00:17.630Z,2.40
2022-10-05T15:02:56.021Z,2.47
2022-10-05T15:05:31.287Z,2.65
2022-10-05T15:08:45.120Z,2.77
2022-10-05T15:11:35.726Z,2.22
2022-10-05T15:14:11.999Z,3.50
2022-10-05T15:16:40.482Z,2.97
2022-10-05T15:19:17.877Z,2.97
2022-10-05T15:22:03.146Z,2.33
2022-10-05T15:25:01.579Z,4.63
2022-10-05T15:28:09.533Z,2.45
2022-10-05T15:31:01.638Z,3.80
2022-10-05T15:33:38.037Z,3.38
2022-10-05T15:36:13.571Z,2.70
2022-10-05T15:38:59.539Z,2.88
2022-10-05T15:42:00.219Z,2.50
2022-10-05T15:45:14.249Z,2.90
2022-10-05T15:47:51.839Z,2.22
2022-10-05T15:50:28.344Z,2.30
2022-10-05T15:53:18.452Z,2.33
2022-10-05T15:55:51.039Z,2.25
2022-10-05T15:58:18.045Z,2.08
2022-10-05T16:00:50.310Z,2.28
2022-10-05T16:03:26.088Z,2.00
2022-10-05T16:06:35.691Z,2.10
2022-10-05T16:09:41.059Z,2.40
2022-10-05T16:12:16.212Z,2.20
2022-10-05T16:15:03.674Z,2.17
2022-10-05T16:17:57.701Z,2.17
2022-10-05T16:20:46.338Z,2.60
2022-10-05T16:23:21.788Z,2.20
2022-10-05T16:26:04.353Z,2.70
2022-10-05T16:28:44.685Z,2.75
2022-10-05T16:31:34.596Z,2.60
2022-10-05T16:34:17.215Z,3.05
2022-10-05T16:37:12.728Z,3.45
2022-10-05T16:40:00.707Z,4.68
2022-10-05T16:42:39.398Z,4.40
2022-10-05T16:45:45.110Z,3.93
2022-10-05T16:48:24.117Z,3.90
2022-10-05T16:51:28.363Z,4.70
2022-10-05T16:54:01.930Z,3.60
2022-10-05T16:56:37.539Z,3.60
2022-10-05T16:59:32.158Z,4.00
2022-10-05T17:02:17.998Z,4.30
2022-10-05T17:05:17.833Z,4.53
2022-10-05T17:08:00.978Z,5.22
2022-10-05T17:11:03.736Z,6.38
2022-10-05T17:13:43.492Z,5.90
2022-10-05T17:16:27.363Z,5.70
2022-10-05T17:19:24.542Z,6.35
2022-10-05T17:22:03.117Z,6.68
2022-10-05T17:24:35.609Z,6.63
2022-10-05T17:27:18.166Z,8.97
2022-10-05T17:30:18.445Z,12.77
2022-10-05T17:32:55.518Z,12.45
2022-10-05T17:35:51.780Z,11.05
2022-10-05T17:38:22.989Z,9.35
2022-10-05T17:41:11.480Z,8.50
2022-10-05T17:43:38.439Z,7.93
2022-10-05T17:46:38.135Z,7.35
2022-10-05T17:49:17.629Z,7.07
2022-10-05T17:52:02.598Z,6.25
2022-10-05T17:54:51.240Z,5.73
2022-10-05T17:57:19.652Z,4.60
2022-10-05T17:59:53.421Z,4.25
2022-10-05T18:02:19.889Z,4.00
2022-10-05T18:05:15.070Z,3.60
2022-10-05T18:07:48.091Z,3.50
2022-10-05T18:10:27.681Z,3.67
2022-10-05T18:12:59.920Z,7.60
2022-10-05T18:15:26.392Z,4.97
2022-10-05T18:18:20.158Z,4.10
2022-10-05T18:21:12.160Z,4.33
2022-10-05T18:23:48.918Z,4.35
2022-10-05T18:26:30.611Z,4.60
2022-10-05T18:29:35.952Z,4.50
2022-10-05T18:32:15.587Z,4.75
2022-10-05T18:35:02.221Z,4.70
2022-10-05T18:38:17.161Z,5.25
2022-10-05T18:40:49.753Z,4.90
2022-10-05T18:43:52.458Z,4.70
2022-10-05T18:46:21.899Z,4.80
2022-10-05T18:49:10.636Z,5.00
2022-10-05T18:52:01.802Z,4.90
2022-10-05T18:54:39.803Z,5.00
2022-10-05T18:57:53.826Z,5.10
2022-10-05T19:00:23.171Z,5.00
2022-10-05T19:02:57.161Z,4.53
2022-10-05T19:05:51.217Z,5.05
2022-10-05T19:08:29.327Z,5.10
2022-10-05T19:11:06.241Z,4.50
2022-10-05T19:13:33.340Z,4.72
2022-10-05T19:16:41.606Z,4.80
2022-10-05T19:19:29.325Z,4.93
2022-10-05T19:22:30.965Z,6.07
2022-10-05T19:25:21.585Z,5.30
2022-10-05T19:27:56.719Z,4.55
2022-10-05T19:30:27.586Z,4.70
2022-10-05T19:33:18.897Z,5.15
2022-10-05T19:35:58.801Z,4.85
2022-10-05T19:39:10.643Z,5.00
2022-10-05T19:41:47.351Z,4.47
2022-10-05T19:44:25.313Z,4.67
2022-10-05T19:47:29.532Z,4.85
2022-10-05T19:49:55.981Z,4.88
2022-10-05T19:52:36.496Z,4.60
2022-10-05T19:55:12.243Z,3.90
2022-10-05T19:57:52.041Z,3.67
2022-10-05T20:00:33.857Z,3.75
2022-10-05T20:03:23.475Z,3.13
2022-10-05T20:05:53.950Z,3.55
2022-10-05T20:08:22.019Z,3.28
2022-10-05T20:11:27.166Z,3.30
2022-10-05T20:13:53.673Z,3.22
2022-10-05T20:16:45.445Z,3.13
2022-10-05T20:19:46.041Z,3.35
2022-10-05T20:22:40.780Z,3.63
2022-10-05T20:25:19.245Z,3.20
2022-10-05T20:27:50.204Z,3.10
2022-10-05T20:30:19.130Z,3.30
2022-10-05T20:32:50.211Z,3.30
2022-10-05T20:35:18.580Z,3.60
2022-10-05T20:37:45.145Z,3.20
2022-10-05T20:40:12.119Z,4.03
2022-10-05T20:42:38.645Z,3.33
2022-10-05T20:45:06.345Z,5.13
2022-10-05T20:47:33.659Z,4.40
2022-10-05T20:50:01.440Z,4.43
2022-10-05T20:52:27.980Z,4.13
2022-10-05T20:54:59.251Z,4.03
2022-10-05T20:57:26.529Z,3.60
2022-10-05T20:59:53.548Z,4.00
2022-10-05T21:02:20.348Z,3.20
2022-10-05T21:04:47.686Z,2.75
2022-10-05T21:07:16.567Z,3.22
2022-10-05T21:09:44.624Z,2.85
2022-10-05T21:12:11.438Z,2.90
2022-10-05T21:14:38.335Z,3.13
2022-10-05T21:17:06.172Z,2.85
2022-10-05T21:19:38.137Z,2.63
2022-10-05T21:22:07.549Z,2.72
2022-10-05T21:24:35.999Z,2.60
2022-10-05T21:27:03.240Z,3.23
2022-10-05T21:29:30.378Z,2.35
2022-10-05T21:31:57.302Z,2.72
2022-10-05T21:34:24.534Z,2.70
2022-10-05T21:36:51.093Z,2.60
2022-10-05T21:39:17.895Z,2.40
2022-10-05T21:41:44.510Z,2.80
2022-10-05T21:44:11.049Z,2.75
2022-10-05T21:46:38.397Z,2.50
2022-10-05T21:49:09.370Z,2.63
2022-10-05T21:51:36.890Z,2.67
2022-10-05T21:54:19.149Z,2.53
2022-10-05T21:56:49.874Z,3.00
2022-10-05T21:59:19.750Z,2.78
2022-10-05T22:01:46.380Z,2.67
2022-10-05T22:04:13.967Z,2.70
2022-10-05T22:06:40.725Z,2.80
2022-10-05T22:09:07.303Z,2.80
2022-10-05T22:11:33.886Z,2.50
2022-10-05T22:14:03.106Z,2.60
2022-10-05T22:16:32.902Z,2.50
2022-10-05T22:19:03.782Z,2.58
2022-10-05T22:21:32.183Z,2.80
2022-10-05T22:24:01.604Z,2.55
2022-10-05T22:26:28.185Z,2.70
2022-10-05T22:28:57.617Z,2.50
2022-10-05T22:31:24.227Z,2.45
2022-10-05T22:33:51.282Z,2.80
2022-10-05T22:36:18.529Z,2.42
2022-10-05T22:38:46.549Z,2.58
2022-10-05T22:41:14.948Z,2.50
2022-10-05T22:43:41.397Z,2.65
2022-10-05T22:46:12.303Z,2.60
2022-10-05T22:48:39.733Z,2.42
2022-10-05T22:51:06.400Z,2.70
2022-10-05T22:53:33.994Z,2.30
2022-10-05T22:56:05.498Z,2.80
2022-10-05T22:58:31.986Z,2.90
2022-10-05T23:01:06.240Z,1.75
2022-10-05T23:03:33.576Z,2.50
2022-10-05T23:06:03.631Z,2.60
2022-10-05T23:08:34.323Z,2.25
2022-10-05T23:11:09.081Z,2.58
2022-10-05T23:13:35.641Z,2.30
2022-10-05T23:16:16.588Z,2.20
2022-10-05T23:18:43.580Z,2.30
2022-10-05T23:21:11.514Z,2.30
2022-10-05T23:23:39.899Z,2.30
2022-10-05T23:26:09.752Z,2.40
2022-10-05T23:28:38.349Z,2.50
2022-10-05T23:31:07.473Z,2.60
2022-10-05T23:33:35.353Z,2.50
2022-10-05T23:36:16.700Z,2.60
2022-10-05T23:38:43.916Z,2.42
2022-10-05T23:41:11.074Z,2.80
2022-10-05T23:43:39.219Z,2.77
2022-10-05T23:46:07.196Z,2.40
2022-10-05T23:48:37.901Z,2.63
2022-10-05T23:51:09.618Z,2.58
2022-10-05T23:53:36.278Z,2.80
2022-10-05T23:56:03.194Z,2.47
2022-10-05T23:58:30.096Z,2.70
